createdAt,value
2019-02-09T00:00:47.053Z,85.95
2019-02-09T00:01:55.096Z,88.03
2019-02-09T00:03:03.167Z,86.61
2019-02-09T00:04:11.211Z,87.27
2019-02-09T00:05:19.258Z,85.66
2019-02-09T00:06:27.304Z,85.85
2019-02-09T00:07:35.383Z,85.00
2019-02-09T00:08:43.432Z,85.00
2019-02-09T00:09:51.474Z,85.47
2019-02-09T00:10:59.543Z,88.31
2019-02-09T00:12:07.586Z,86.99
2019-02-09T00:13:15.668Z,85.19
2019-02-09T00:14:23.703Z,81.60
2019-02-09T00:15:31.770Z,83.68
2019-02-09T00:16:39.825Z,84.20
2019-02-09T00:17:47.882Z,83.36
2019-02-09T00:18:55.916Z,80.43
2019-02-09T00:20:03.990Z,79.33
2019-02-09T00:21:12.010Z,74.66
2019-02-09T00:22:20.090Z,78.06
2019-02-09T00:23:28.139Z,79.10
2019-02-09T00:24:36.188Z,75.89
2019-02-09T00:25:44.246Z,75.13
2019-02-09T00:26:52.289Z,73.81
2019-02-09T00:28:00.368Z,71.64
2019-02-09T00:29:08.407Z,71.73
2019-02-09T00:30:16.477Z,69.93
2019-02-09T00:31:24.536Z,68.42
2019-02-09T00:32:32.570Z,70.21
2019-02-09T00:33:40.629Z,75.60
2019-02-09T00:34:48.744Z,78.91
2019-02-09T00:35:56.757Z,79.00
2019-02-09T00:37:04.791Z,77.31
2019-02-09T00:38:12.851Z,76.45
2019-02-09T00:39:20.906Z,77.31
2019-02-09T00:40:28.976Z,67.57
2019-02-09T00:41:37.034Z,67.85
2019-02-09T00:42:45.075Z,69.84
2019-02-09T00:43:53.129Z,76.83
2019-02-09T00:45:01.179Z,64.45
2019-02-09T00:46:09.233Z,65.21
2019-02-09T00:47:17.303Z,70.31
2019-02-09T00:48:25.342Z,70.21
2019-02-09T00:49:33.411Z,73.05
2019-02-09T00:50:41.488Z,70.59
2019-02-09T00:51:49.560Z,73.05
2019-02-09T00:52:57.570Z,70.88
2019-02-09T00:54:05.610Z,61.43
2019-02-09T00:55:13.677Z,59.35
2019-02-09T00:56:21.704Z,58.50
2019-02-09T00:57:29.786Z,56.89
2019-02-09T00:58:37.840Z,57.55
2019-02-09T00:59:52.952Z,60.11
2019-02-09T01:00:54.050Z,61.80
2019-02-09T01:02:01.997Z,62.28
2019-02-09T01:03:10.066Z,61.61
2019-02-09T01:04:18.121Z,62.78
2019-02-09T01:05:26.180Z,64.36
2019-02-09T01:06:34.246Z,61.99
2019-02-09T01:07:42.260Z,61.61
2019-02-09T01:08:50.333Z,61.99
2019-02-09T01:09:58.389Z,61.93
2019-02-09T01:11:06.428Z,63.73
2019-02-09T01:12:14.509Z,64.86
2019-02-09T01:13:22.565Z,62.88
2019-02-09T01:14:30.623Z,64.11
2019-02-09T01:15:38.676Z,63.64
2019-02-09T01:16:46.721Z,63.82
2019-02-09T01:17:54.780Z,64.86
2019-02-09T01:19:02.829Z,65.24
2019-02-09T01:20:10.875Z,65.15
2019-02-09T01:21:18.935Z,65.34
2019-02-09T01:22:26.978Z,65.62
2019-02-09T01:23:35.065Z,66.75
2019-02-09T01:24:43.110Z,66.56
2019-02-09T01:25:51.164Z,63.73
2019-02-09T01:26:59.212Z,63.82
2019-02-09T01:28:07.268Z,65.15
2019-02-09T01:29:15.325Z,67.03
2019-02-09T01:30:23.385Z,67.13
2019-02-09T01:31:31.428Z,67.03
2019-02-09T01:32:39.486Z,65.11
2019-02-09T01:33:47.548Z,67.51
2019-02-09T01:34:55.591Z,66.75
2019-02-09T01:36:03.651Z,66.56
2019-02-09T01:37:11.691Z,63.35
2019-02-09T01:38:19.786Z,65.05
2019-02-09T01:39:27.878Z,64.29
2019-02-09T01:40:35.876Z,65.11
2019-02-09T01:41:43.925Z,67.00
2019-02-09T01:42:51.963Z,66.38
2019-02-09T01:44:00.043Z,63.16
2019-02-09T01:45:08.088Z,62.47
2019-02-09T01:46:16.155Z,66.28
2019-02-09T01:47:24.203Z,65.02
2019-02-09T01:48:32.244Z,65.15
2019-02-09T01:49:40.304Z,64.86
2019-02-09T01:50:48.361Z,64.01
2019-02-09T01:51:56.415Z,64.96
2019-02-09T01:53:04.470Z,65.49
2019-02-09T01:54:12.516Z,64.39
2019-02-09T01:55:20.583Z,63.92
2019-02-09T01:56:28.632Z,63.04
2019-02-09T01:57:36.697Z,65.91
2019-02-09T01:58:45.571Z,64.45
2019-02-09T01:59:52.810Z,64.39
2019-02-09T02:01:00.872Z,64.54
2019-02-09T02:02:08.913Z,64.86
2019-02-09T02:03:16.974Z,66.28
2019-02-09T02:04:25.046Z,66.47
2019-02-09T02:05:33.097Z,64.58
2019-02-09T02:06:41.143Z,64.39
2019-02-09T02:07:49.191Z,67.03
2019-02-09T02:08:57.249Z,68.27
2019-02-09T02:10:05.305Z,69.40
2019-02-09T02:11:13.368Z,68.46
2019-02-09T02:12:21.394Z,64.96
2019-02-09T02:13:29.465Z,65.43
2019-02-09T02:14:37.527Z,64.77
2019-02-09T02:15:45.575Z,64.86
2019-02-09T02:16:53.647Z,63.16
2019-02-09T02:18:01.692Z,62.69
2019-02-09T02:19:09.741Z,61.65
2019-02-09T02:20:17.796Z,63.64
2019-02-09T02:21:25.845Z,66.75
2019-02-09T02:22:33.909Z,65.24
2019-02-09T02:23:41.932Z,64.39
2019-02-09T02:24:50.024Z,65.62
2019-02-09T02:25:58.083Z,64.39
2019-02-09T02:27:06.107Z,67.13
2019-02-09T02:28:14.196Z,67.70
2019-02-09T02:29:22.224Z,67.13
2019-02-09T02:30:30.731Z,67.13
2019-02-09T02:31:38.726Z,68.17
2019-02-09T02:32:46.690Z,68.08
2019-02-09T02:33:54.748Z,70.39
2019-02-09T02:35:02.512Z,70.39
2019-02-09T02:36:10.566Z,70.57
2019-02-09T02:37:18.627Z,71.71
2019-02-09T02:38:26.678Z,71.14
2019-02-09T02:39:34.751Z,72.28
2019-02-09T02:40:42.787Z,72.47
2019-02-09T02:41:50.850Z,73.50
2019-02-09T02:42:58.913Z,75.40
2019-02-09T02:44:06.970Z,77.01
2019-02-09T02:45:15.040Z,75.49
2019-02-09T02:46:23.065Z,77.29
2019-02-09T02:47:31.130Z,79.18
2019-02-09T02:48:39.182Z,81.55
2019-02-09T02:49:47.247Z,81.36
2019-02-09T02:50:55.295Z,91.01
2019-02-09T02:52:03.366Z,86.85
2019-02-09T02:53:11.390Z,84.86
2019-02-09T02:54:19.464Z,86.56
2019-02-09T02:55:27.525Z,86.66
2019-02-09T02:56:35.576Z,88.64
2019-02-09T02:57:43.686Z,88.55
2019-02-09T02:58:51.675Z,89.78
2019-02-09T02:59:59.735Z,92.24
2019-02-09T03:01:07.803Z,90.82
2019-02-09T03:02:15.862Z,88.40
2019-02-09T03:03:23.894Z,89.92
2019-02-09T03:04:31.956Z,89.59
2019-02-09T03:05:40.024Z,88.74
2019-02-09T03:06:48.093Z,88.87
2019-02-09T03:07:56.129Z,88.07
2019-02-09T03:09:04.182Z,89.78
2019-02-09T03:10:12.217Z,87.98
2019-02-09T03:11:20.293Z,88.78
2019-02-09T03:12:28.357Z,89.59
2019-02-09T03:13:36.416Z,88.93
2019-02-09T03:14:44.484Z,88.31
2019-02-09T03:15:52.513Z,89.35
2019-02-09T03:17:00.586Z,89.92
2019-02-09T03:18:08.639Z,90.11
2019-02-09T03:19:17.766Z,90.30
2019-02-09T03:20:24.750Z,90.63
2019-02-09T03:21:32.802Z,90.30
2019-02-09T03:22:40.862Z,91.62
2019-02-09T03:23:48.937Z,91.91
2019-02-09T03:24:56.986Z,91.53
2019-02-09T03:26:05.018Z,91.05
2019-02-09T03:27:13.078Z,91.81
2019-02-09T03:28:21.138Z,94.46
2019-02-09T03:29:29.202Z,92.76
2019-02-09T03:30:46.205Z,91.24
2019-02-09T03:31:45.317Z,92.00
2019-02-09T03:32:53.364Z,91.72
2019-02-09T03:34:01.396Z,92.38
2019-02-09T03:35:09.488Z,92.47
2019-02-09T03:36:17.547Z,93.04
2019-02-09T03:37:25.615Z,94.08
2019-02-09T03:38:33.643Z,92.76
2019-02-09T03:39:41.679Z,92.94
2019-02-09T03:40:49.776Z,93.32
2019-02-09T03:41:57.803Z,92.76
2019-02-09T03:43:05.881Z,93.70
2019-02-09T03:44:13.927Z,93.13
2019-02-09T03:45:21.968Z,92.38
2019-02-09T03:46:30.055Z,91.62
2019-02-09T03:47:38.095Z,92.94
2019-02-09T03:48:46.159Z,92.85
2019-02-09T03:49:54.200Z,92.47
2019-02-09T03:51:02.259Z,92.66
2019-02-09T03:52:10.321Z,90.39
2019-02-09T03:53:18.393Z,93.32
2019-02-09T03:54:26.442Z,92.38
2019-02-09T03:55:34.480Z,92.57
2019-02-09T03:56:42.536Z,93.51
2019-02-09T03:57:50.617Z,93.99
2019-02-09T03:58:58.670Z,94.93
2019-02-09T04:00:06.717Z,94.37
2019-02-09T04:01:14.769Z,94.65
2019-02-09T04:02:22.821Z,95.59
2019-02-09T04:03:30.877Z,96.83
2019-02-09T04:04:38.949Z,95.21
2019-02-09T04:05:47.013Z,94.93
2019-02-09T04:06:55.209Z,98.72
2019-02-09T04:08:03.147Z,98.82
2019-02-09T04:09:11.176Z,98.63
2019-02-09T04:10:19.219Z,98.72
2019-02-09T04:11:27.282Z,99.66
2019-02-09T04:12:35.341Z,98.72
2019-02-09T04:13:43.397Z,97.30
2019-02-09T04:14:51.446Z,97.54
2019-02-09T04:15:59.510Z,98.15
2019-02-09T04:17:07.574Z,98.82
2019-02-09T04:18:15.634Z,98.30
2019-02-09T04:19:23.692Z,98.53
2019-02-09T04:20:31.734Z,97.35
2019-02-09T04:21:39.804Z,99.99
2019-02-09T04:22:47.843Z,99.99
2019-02-09T04:23:55.911Z,99.99
2019-02-09T04:25:03.968Z,99.99
2019-02-09T04:26:12.008Z,99.99
2019-02-09T04:27:20.079Z,99.99
2019-02-09T04:28:28.132Z,99.99
2019-02-09T04:29:36.186Z,97.82
2019-02-09T04:30:44.260Z,99.15
2019-02-09T04:31:52.292Z,99.99
2019-02-09T04:33:00.367Z,99.99
2019-02-09T04:34:08.413Z,99.99
2019-02-09T04:35:16.477Z,99.99
2019-02-09T04:36:24.526Z,99.99
2019-02-09T04:37:32.600Z,99.99
2019-02-09T04:38:40.639Z,99.99
2019-02-09T04:39:48.750Z,98.68
2019-02-09T04:40:56.780Z,97.44
2019-02-09T04:42:04.828Z,96.50
2019-02-09T04:43:12.877Z,95.83
2019-02-09T04:44:20.943Z,92.33
2019-02-09T04:45:28.990Z,94.04
2019-02-09T04:46:37.056Z,93.75
2019-02-09T04:47:45.111Z,93.23
2019-02-09T04:48:53.163Z,93.61
2019-02-09T04:50:01.204Z,95.22
2019-02-09T04:51:09.276Z,90.67
2019-02-09T04:52:17.347Z,90.39
2019-02-09T04:53:25.386Z,91.14
2019-02-09T04:54:33.564Z,90.95
2019-02-09T04:55:41.495Z,88.49
2019-02-09T04:56:49.564Z,89.53
2019-02-09T04:57:57.631Z,89.29
2019-02-09T04:59:05.700Z,91.19
2019-02-09T05:00:13.751Z,88.40
2019-02-09T05:01:21.783Z,88.35
2019-02-09T05:02:29.847Z,90.34
2019-02-09T05:03:37.910Z,91.09
2019-02-09T05:04:45.967Z,94.04
2019-02-09T05:05:54.031Z,91.09
2019-02-09T05:07:02.059Z,91.76
2019-02-09T05:08:10.134Z,89.67
2019-02-09T05:09:18.204Z,90.05
2019-02-09T05:10:26.244Z,90.53
2019-02-09T05:11:34.321Z,89.86
2019-02-09T05:12:42.350Z,91.85
2019-02-09T05:13:50.426Z,94.04
2019-02-09T05:14:58.489Z,91.76
2019-02-09T05:16:06.533Z,91.85
2019-02-09T05:17:14.590Z,91.19
2019-02-09T05:18:22.661Z,92.47
2019-02-09T05:19:30.710Z,90.91
2019-02-09T05:20:38.769Z,91.00
2019-02-09T05:21:46.828Z,91.95
2019-02-09T05:22:54.910Z,91.66
2019-02-09T05:24:02.946Z,91.95
2019-02-09T05:25:11.007Z,92.09
2019-02-09T05:26:19.058Z,92.14
2019-02-09T05:27:27.122Z,91.62
2019-02-09T05:28:35.180Z,92.85
2019-02-09T05:29:43.219Z,90.95
2019-02-09T05:30:51.292Z,92.00
2019-02-09T05:31:59.349Z,91.05
2019-02-09T05:33:07.401Z,91.57
2019-02-09T05:34:15.464Z,93.32
2019-02-09T05:35:23.543Z,89.96
2019-02-09T05:36:31.562Z,89.86
2019-02-09T05:37:39.644Z,89.06
2019-02-09T05:38:47.688Z,90.48
2019-02-09T05:39:55.752Z,89.11
2019-02-09T05:41:03.828Z,90.34
2019-02-09T05:42:11.843Z,88.35
2019-02-09T05:43:19.932Z,88.96
2019-02-09T05:44:28.061Z,87.64
2019-02-09T05:45:36.046Z,86.88
2019-02-09T05:46:44.108Z,86.93
2019-02-09T05:47:52.141Z,86.79
2019-02-09T05:49:00.242Z,87.54
2019-02-09T05:50:08.271Z,87.30
2019-02-09T05:51:16.335Z,86.93
2019-02-09T05:52:24.379Z,87.21
2019-02-09T05:53:32.426Z,86.35
2019-02-09T05:54:40.517Z,87.92
2019-02-09T05:55:48.561Z,86.88
2019-02-09T05:56:56.612Z,86.88
2019-02-09T05:58:04.710Z,87.73
2019-02-09T05:59:12.751Z,87.64
2019-02-09T06:00:20.781Z,89.63
2019-02-09T06:01:31.960Z,88.49
2019-02-09T06:02:36.895Z,87.83
2019-02-09T06:03:45.021Z,89.06
2019-02-09T06:04:53.030Z,90.01
2019-02-09T06:06:01.077Z,89.44
2019-02-09T06:07:09.136Z,89.91
2019-02-09T06:08:17.190Z,89.06
2019-02-09T06:09:25.250Z,88.87
2019-02-09T06:10:33.314Z,89.53
2019-02-09T06:11:41.353Z,90.39
2019-02-09T06:12:49.420Z,90.39
2019-02-09T06:13:57.487Z,89.82
2019-02-09T06:15:05.540Z,89.44
2019-02-09T06:16:13.600Z,89.34
2019-02-09T06:17:21.654Z,89.15
2019-02-09T06:18:29.705Z,88.21
2019-02-09T06:19:37.809Z,87.35
2019-02-09T06:20:45.852Z,87.45
2019-02-09T06:21:53.887Z,87.45
2019-02-09T06:23:01.922Z,86.98
2019-02-09T06:24:10.006Z,85.27
2019-02-09T06:25:18.074Z,83.75
2019-02-09T06:26:26.128Z,81.10
2019-02-09T06:27:34.184Z,80.91
2019-02-09T06:28:42.197Z,80.06
2019-02-09T06:29:50.286Z,79.68
2019-02-09T06:30:58.365Z,79.49
2019-02-09T06:32:06.402Z,80.25
2019-02-09T06:33:14.459Z,79.21
2019-02-09T06:34:22.507Z,78.92
2019-02-09T06:35:30.578Z,78.26
2019-02-09T06:36:38.652Z,77.59
2019-02-09T06:37:46.686Z,77.88
2019-02-09T06:38:54.757Z,78.45
2019-02-09T06:40:02.794Z,78.64
2019-02-09T06:41:10.872Z,79.11
2019-02-09T06:42:18.922Z,78.64
2019-02-09T06:43:26.986Z,78.07
2019-02-09T06:44:35.044Z,79.68
2019-02-09T06:45:43.108Z,78.16
2019-02-09T06:46:51.161Z,77.59
2019-02-09T06:47:59.211Z,77.31
2019-02-09T06:49:07.276Z,78.45
2019-02-09T06:50:15.317Z,78.45
2019-02-09T06:51:23.492Z,77.78
2019-02-09T06:52:31.429Z,77.12
2019-02-09T06:53:39.489Z,77.03
2019-02-09T06:54:47.550Z,77.31
2019-02-09T06:55:55.602Z,77.03
2019-02-09T06:57:03.681Z,77.59
2019-02-09T06:58:11.709Z,77.88
2019-02-09T06:59:19.785Z,77.03
2019-02-09T07:00:27.837Z,79.49
2019-02-09T07:01:35.896Z,77.50
2019-02-09T07:02:43.964Z,77.40
2019-02-09T07:03:52.064Z,76.55
2019-02-09T07:05:00.123Z,75.70
2019-02-09T07:06:08.123Z,77.88
2019-02-09T07:07:16.182Z,80.15
2019-02-09T07:08:24.266Z,77.12
2019-02-09T07:09:32.280Z,76.27
2019-02-09T07:10:40.371Z,74.75
2019-02-09T07:11:48.406Z,76.08
2019-02-09T07:12:56.483Z,75.70
2019-02-09T07:14:04.527Z,75.70
2019-02-09T07:15:12.575Z,75.60
2019-02-09T07:16:20.639Z,75.79
2019-02-09T07:17:28.695Z,76.93
2019-02-09T07:18:36.764Z,77.59
2019-02-09T07:19:44.819Z,76.74
2019-02-09T07:20:52.879Z,75.89
2019-02-09T07:22:00.934Z,76.93
2019-02-09T07:23:08.983Z,79.02
2019-02-09T07:24:17.049Z,76.84
2019-02-09T07:25:25.115Z,77.59
2019-02-09T07:26:33.161Z,78.83
2019-02-09T07:27:41.247Z,76.84
2019-02-09T07:28:49.295Z,74.56
2019-02-09T07:29:57.335Z,74.66
2019-02-09T07:31:05.401Z,75.70
2019-02-09T07:32:13.438Z,77.88
2019-02-09T07:33:21.473Z,77.22
2019-02-09T07:34:29.553Z,76.08
2019-02-09T07:35:37.625Z,75.42
2019-02-09T07:36:45.682Z,76.55
2019-02-09T07:37:53.725Z,75.36
2019-02-09T07:39:01.780Z,77.54
2019-02-09T07:40:09.866Z,80.86
2019-02-09T07:41:17.916Z,81.43
2019-02-09T07:42:25.970Z,82.56
2019-02-09T07:43:34.021Z,82.75
2019-02-09T07:44:42.059Z,86.16
2019-02-09T07:45:50.135Z,83.23
2019-02-09T07:46:58.196Z,83.51
2019-02-09T07:48:06.240Z,83.80
2019-02-09T07:49:14.316Z,83.98
2019-02-09T07:50:22.364Z,83.23
2019-02-09T07:51:30.441Z,83.61
2019-02-09T07:52:38.485Z,88.82
2019-02-09T07:53:46.534Z,84.94
2019-02-09T07:54:54.612Z,84.08
2019-02-09T07:56:03.237Z,84.46
2019-02-09T07:57:12.456Z,83.89
2019-02-09T07:58:18.798Z,82.66
2019-02-09T07:59:26.853Z,86.93
2019-02-09T08:00:34.921Z,85.97
2019-02-09T08:01:42.969Z,86.45
2019-02-09T08:02:51.063Z,86.49
2019-02-09T08:03:59.084Z,90.67
2019-02-09T08:05:07.124Z,88.29
2019-02-09T08:06:15.197Z,89.15
2019-02-09T08:07:23.267Z,91.24
2019-02-09T08:08:31.322Z,90.76
2019-02-09T08:09:39.933Z,91.61
2019-02-09T08:10:47.434Z,94.46
2019-02-09T08:11:55.494Z,92.57
2019-02-09T08:13:03.556Z,94.56
2019-02-09T08:14:11.576Z,91.99
2019-02-09T08:15:19.653Z,91.90
2019-02-09T08:16:27.718Z,91.90
2019-02-09T08:17:35.785Z,90.95
2019-02-09T08:18:43.845Z,94.18
2019-02-09T08:19:51.882Z,92.47
2019-02-09T08:20:59.957Z,95.03
2019-02-09T08:22:08.011Z,95.12
2019-02-09T08:23:16.077Z,95.98
2019-02-09T08:24:24.156Z,97.88
2019-02-09T08:25:32.180Z,98.11
2019-02-09T08:26:40.249Z,99.91
2019-02-09T08:27:48.372Z,99.99
2019-02-09T08:28:56.352Z,99.99
2019-02-09T08:30:04.421Z,99.99
2019-02-09T08:31:12.477Z,99.99
2019-02-09T08:32:20.541Z,99.99
2019-02-09T08:33:28.592Z,99.99
2019-02-09T08:34:36.679Z,99.99
2019-02-09T08:35:44.776Z,99.99
2019-02-09T08:36:52.777Z,99.99
2019-02-09T08:38:00.833Z,99.99
2019-02-09T08:39:08.893Z,99.99
2019-02-09T08:40:16.949Z,99.99
2019-02-09T08:41:25.020Z,99.99
2019-02-09T08:42:33.073Z,99.99
2019-02-09T08:43:41.183Z,99.99
2019-02-09T08:44:49.206Z,99.99
2019-02-09T08:45:57.267Z,99.99
2019-02-09T08:47:05.306Z,99.99
2019-02-09T08:48:13.370Z,99.99
2019-02-09T08:49:21.796Z,99.99
2019-02-09T08:50:29.488Z,99.99
2019-02-09T08:51:37.556Z,99.99
2019-02-09T08:52:45.852Z,99.99
2019-02-09T08:53:53.673Z,99.99
2019-02-09T08:55:01.764Z,99.99
2019-02-09T08:56:09.793Z,99.99
2019-02-09T08:57:17.886Z,99.99
2019-02-09T08:58:26.017Z,99.99
2019-02-09T08:59:33.975Z,99.99
2019-02-09T09:00:42.070Z,99.99
2019-02-09T09:01:50.089Z,99.99
2019-02-09T09:02:58.167Z,99.99
2019-02-09T09:04:06.206Z,99.99
2019-02-09T09:05:14.311Z,99.99
2019-02-09T09:06:22.303Z,99.99
2019-02-09T09:07:30.391Z,99.99
2019-02-09T09:08:38.441Z,99.99
2019-02-09T09:09:46.877Z,99.99
2019-02-09T09:10:55.210Z,99.99
2019-02-09T09:12:02.626Z,99.99
2019-02-09T09:13:10.697Z,99.99
2019-02-09T09:14:18.754Z,99.99
2019-02-09T09:15:26.802Z,99.99
2019-02-09T09:16:34.871Z,99.99
2019-02-09T09:17:42.943Z,99.99
2019-02-09T09:18:51.030Z,99.99
2019-02-09T09:19:59.044Z,99.99
2019-02-09T09:21:07.140Z,99.99
2019-02-09T09:22:15.165Z,99.99
2019-02-09T09:23:23.281Z,99.99
2019-02-09T09:24:31.393Z,99.99
2019-02-09T09:25:39.354Z,99.99
2019-02-09T09:26:47.417Z,99.99
2019-02-09T09:27:55.486Z,99.99
2019-02-09T09:29:03.549Z,99.99
2019-02-09T09:30:11.566Z,99.99
2019-02-09T09:31:19.649Z,99.99
2019-02-09T09:32:28.607Z,99.99
2019-02-09T09:33:35.779Z,99.99
2019-02-09T09:34:43.854Z,99.99
2019-02-09T09:35:51.905Z,99.99
2019-02-09T09:36:59.997Z,99.99
2019-02-09T09:38:08.016Z,99.99
2019-02-09T09:39:16.114Z,99.99
2019-02-09T09:40:24.144Z,99.99
2019-02-09T09:41:32.190Z,99.99
2019-02-09T09:42:40.274Z,99.99
2019-02-09T09:43:48.336Z,99.99
2019-02-09T09:44:56.388Z,99.99
2019-02-09T09:46:04.462Z,99.99
2019-02-09T09:47:12.507Z,99.99
2019-02-09T09:48:20.576Z,99.99
2019-02-09T09:49:28.642Z,99.99
2019-02-09T09:50:36.715Z,99.99
2019-02-09T09:51:44.774Z,99.99
2019-02-09T09:52:52.828Z,99.99
2019-02-09T09:54:00.893Z,99.99
2019-02-09T09:55:08.955Z,99.99
2019-02-09T09:56:17.003Z,99.99
2019-02-09T09:57:25.086Z,99.99
2019-02-09T09:58:33.148Z,99.99
2019-02-09T09:59:41.187Z,99.99
2019-02-09T10:00:49.258Z,99.99
2019-02-09T10:01:57.323Z,99.99
2019-02-09T10:03:05.386Z,99.99
2019-02-09T10:04:13.442Z,99.99
2019-02-09T10:05:21.480Z,99.99
2019-02-09T10:06:29.546Z,99.99
2019-02-09T10:07:37.631Z,99.99
2019-02-09T10:08:45.689Z,99.99
2019-02-09T10:09:53.987Z,99.99
2019-02-09T10:11:01.795Z,99.99
2019-02-09T10:12:09.875Z,99.99
2019-02-09T10:13:17.916Z,99.99
2019-02-09T10:14:26.012Z,99.99
2019-02-09T10:15:34.059Z,99.99
2019-02-09T10:16:42.092Z,99.99
2019-02-09T10:17:50.215Z,99.99
2019-02-09T10:18:58.245Z,99.99
2019-02-09T10:20:06.300Z,99.99
2019-02-09T10:21:14.363Z,99.99
2019-02-09T10:22:22.475Z,99.99
2019-02-09T10:23:30.509Z,99.99
2019-02-09T10:24:38.547Z,99.99
2019-02-09T10:25:46.619Z,99.99
2019-02-09T10:26:54.685Z,99.99
2019-02-09T10:28:02.731Z,99.99
2019-02-09T10:29:10.967Z,99.99
2019-02-09T10:30:18.851Z,99.99
2019-02-09T10:31:26.926Z,99.99
2019-02-09T10:32:34.985Z,99.99
2019-02-09T10:33:43.056Z,99.99
2019-02-09T10:34:51.102Z,99.99
2019-02-09T10:35:59.161Z,99.99
2019-02-09T10:37:07.212Z,99.99
2019-02-09T10:38:15.276Z,99.99
2019-02-09T10:39:23.356Z,99.99
2019-02-09T10:40:31.388Z,99.99
2019-02-09T10:41:39.488Z,99.99
2019-02-09T10:42:47.575Z,99.99
2019-02-09T10:43:55.596Z,99.99
2019-02-09T10:45:03.650Z,99.99
2019-02-09T10:46:11.699Z,99.99
2019-02-09T10:47:19.790Z,99.99
2019-02-09T10:48:27.843Z,99.99
2019-02-09T10:49:35.898Z,99.99
2019-02-09T10:50:43.979Z,99.99
2019-02-09T10:51:52.002Z,99.99
2019-02-09T10:53:00.132Z,99.99
2019-02-09T10:54:08.162Z,99.99
2019-02-09T10:55:16.305Z,99.99
2019-02-09T10:56:24.270Z,99.99
2019-02-09T10:57:32.314Z,99.99
2019-02-09T10:58:40.386Z,99.99
2019-02-09T10:59:48.460Z,99.99
2019-02-09T11:00:56.527Z,99.99
2019-02-09T11:02:04.566Z,99.99
2019-02-09T11:03:12.627Z,99.99
2019-02-09T11:04:21.462Z,99.99
2019-02-09T11:05:28.750Z,99.99
2019-02-09T11:06:36.823Z,99.99
2019-02-09T11:07:44.891Z,99.99
2019-02-09T11:08:52.943Z,99.99
2019-02-09T11:10:01.006Z,99.99
2019-02-09T11:11:09.069Z,99.99
2019-02-09T11:12:17.121Z,99.99
2019-02-09T11:13:25.190Z,99.99
2019-02-09T11:14:33.263Z,99.99
2019-02-09T11:15:41.327Z,99.99
2019-02-09T11:16:49.376Z,99.99
2019-02-09T11:17:57.436Z,99.99
2019-02-09T11:19:05.506Z,99.99
2019-02-09T11:20:13.574Z,99.99
2019-02-09T11:21:21.592Z,99.99
2019-02-09T11:22:29.690Z,99.99
2019-02-09T11:23:37.755Z,99.99
2019-02-09T11:24:45.847Z,99.99
2019-02-09T11:25:53.916Z,99.99
2019-02-09T11:27:01.911Z,99.99
2019-02-09T11:28:10.003Z,99.99
2019-02-09T11:29:18.061Z,99.99
2019-02-09T11:30:26.115Z,99.99
2019-02-09T11:31:34.185Z,99.99
2019-02-09T11:32:42.237Z,99.99
2019-02-09T11:33:50.318Z,99.99
2019-02-09T11:34:58.376Z,99.99
2019-02-09T11:36:06.447Z,99.99
2019-02-09T11:37:14.501Z,99.99
2019-02-09T11:38:22.583Z,99.99
2019-02-09T11:39:30.745Z,99.99
2019-02-09T11:40:38.697Z,99.99
2019-02-09T11:41:46.769Z,99.99
2019-02-09T11:42:54.825Z,99.99
2019-02-09T11:44:02.963Z,97.51
2019-02-09T11:45:10.949Z,99.99
2019-02-09T11:46:19.018Z,99.99
2019-02-09T11:47:27.119Z,99.99
2019-02-09T11:48:35.134Z,99.99
2019-02-09T11:49:43.193Z,99.99
2019-02-09T11:50:51.245Z,99.99
2019-02-09T11:51:59.384Z,98.18
2019-02-09T11:53:07.383Z,99.89
2019-02-09T11:54:15.446Z,99.99
2019-02-09T11:55:23.511Z,99.99
2019-02-09T11:56:31.546Z,99.99
2019-02-09T11:57:40.001Z,99.13
2019-02-09T11:58:47.690Z,98.74
2019-02-09T11:59:55.770Z,99.89
2019-02-09T12:01:03.836Z,99.99
2019-02-09T12:02:11.881Z,99.79
2019-02-09T12:03:19.956Z,96.75
2019-02-09T12:04:28.021Z,99.69
2019-02-09T12:05:36.091Z,92.36
2019-02-09T12:06:44.142Z,97.03
2019-02-09T12:07:52.176Z,89.79
2019-02-09T12:09:00.284Z,99.03
2019-02-09T12:10:08.360Z,99.99
2019-02-09T12:11:16.406Z,99.99
2019-02-09T12:12:24.449Z,99.99
2019-02-09T12:13:32.515Z,91.22
2019-02-09T12:14:40.591Z,87.89
2019-02-09T12:15:48.678Z,99.03
2019-02-09T12:16:56.695Z,86.46
2019-02-09T12:18:04.775Z,92.94
2019-02-09T12:19:12.860Z,91.60
2019-02-09T12:20:20.898Z,99.69
2019-02-09T12:21:28.974Z,97.51
2019-02-09T12:22:37.026Z,91.74
2019-02-09T12:23:45.091Z,92.69
2019-02-09T12:24:53.158Z,91.94
2019-02-09T12:26:01.211Z,93.37
2019-02-09T12:27:09.286Z,89.46
2019-02-09T12:28:17.386Z,92.69
2019-02-09T12:29:25.420Z,87.84
2019-02-09T12:30:33.478Z,94.70
2019-02-09T12:31:41.508Z,89.36
2019-02-09T12:32:49.585Z,90.12
2019-02-09T12:33:57.670Z,96.51
2019-02-09T12:35:05.723Z,94.41
2019-02-09T12:36:13.794Z,98.13
2019-02-09T12:37:21.833Z,87.27
2019-02-09T12:38:29.918Z,85.74
2019-02-09T12:39:37.989Z,93.84
2019-02-09T12:40:46.345Z,93.27
2019-02-09T12:41:54.110Z,98.60
2019-02-09T12:43:02.441Z,85.36
2019-02-09T12:44:10.235Z,83.36
2019-02-09T12:45:18.296Z,91.08
2019-02-09T12:46:26.796Z,86.69
2019-02-09T12:47:34.437Z,84.31
2019-02-09T12:48:42.476Z,90.70
2019-02-09T12:49:50.578Z,84.79
2019-02-09T12:50:58.615Z,86.88
2019-02-09T12:52:06.780Z,82.50
2019-02-09T12:53:14.745Z,79.17
2019-02-09T12:54:22.822Z,80.31
2019-02-09T12:55:30.858Z,84.69
2019-02-09T12:56:38.931Z,82.69
2019-02-09T12:57:46.990Z,80.22
2019-02-09T12:58:55.056Z,82.41
2019-02-09T13:00:03.124Z,81.26
2019-02-09T13:01:11.184Z,83.26
2019-02-09T13:02:19.244Z,85.17
2019-02-09T13:03:31.134Z,80.69
2019-02-09T13:04:35.384Z,83.07
2019-02-09T13:05:43.433Z,77.55
2019-02-09T13:06:51.493Z,83.32
2019-02-09T13:07:59.606Z,81.70
2019-02-09T13:09:07.643Z,82.93
2019-02-09T13:10:15.722Z,80.55
2019-02-09T13:11:23.830Z,81.41
2019-02-09T13:12:31.825Z,82.08
2019-02-09T13:13:39.902Z,85.60
2019-02-09T13:14:47.962Z,84.36
2019-02-09T13:15:56.021Z,86.36
2019-02-09T13:17:04.090Z,86.75
2019-02-09T13:18:12.162Z,83.13
2019-02-09T13:19:20.213Z,86.36
2019-02-09T13:20:28.261Z,86.75
2019-02-09T13:21:36.326Z,88.75
2019-02-09T13:22:44.390Z,83.98
2019-02-09T13:23:52.460Z,82.27
2019-02-09T13:25:00.536Z,79.70
2019-02-09T13:26:08.616Z,81.98
2019-02-09T13:27:16.657Z,78.65
2019-02-09T13:28:24.725Z,86.65
2019-02-09T13:29:32.778Z,83.13
2019-02-09T13:30:40.837Z,86.46
2019-02-09T13:31:48.904Z,81.41
2019-02-09T13:32:56.977Z,84.08
2019-02-09T13:34:05.029Z,80.27
2019-02-09T13:35:13.094Z,81.13
2019-02-09T13:36:21.175Z,80.02
2019-02-09T13:37:29.258Z,82.08
2019-02-09T13:38:37.286Z,83.45
2019-02-09T13:39:45.341Z,78.78
2019-02-09T13:40:53.392Z,80.31
2019-02-09T13:42:01.489Z,79.83
2019-02-09T13:43:09.524Z,82.98
2019-02-09T13:44:17.594Z,83.26
2019-02-09T13:45:25.681Z,79.27
2019-02-09T13:46:33.744Z,80.31
2019-02-09T13:47:42.421Z,78.41
2019-02-09T13:48:49.858Z,75.55
2019-02-09T13:49:57.923Z,74.65
2019-02-09T13:51:05.983Z,75.89
2019-02-09T13:52:14.078Z,74.65
2019-02-09T13:53:22.164Z,80.08
2019-02-09T13:54:30.210Z,82.18
2019-02-09T13:55:38.237Z,81.26
2019-02-09T13:56:46.362Z,75.74
2019-02-09T13:57:54.356Z,76.59
2019-02-09T13:59:02.424Z,78.08
2019-02-09T14:00:10.547Z,78.75
2019-02-09T14:01:18.552Z,75.45
2019-02-09T14:02:26.637Z,80.41
2019-02-09T14:03:34.688Z,81.74
2019-02-09T14:04:42.763Z,77.83
2019-02-09T14:05:50.830Z,79.27
2019-02-09T14:06:58.888Z,76.69
2019-02-09T14:08:06.945Z,75.84
2019-02-09T14:09:15.039Z,76.46
2019-02-09T14:10:23.085Z,76.21
2019-02-09T14:11:31.139Z,76.18
2019-02-09T14:12:39.234Z,73.32
2019-02-09T14:13:47.261Z,76.37
2019-02-09T14:14:55.381Z,75.04
2019-02-09T14:16:07.967Z,74.94
2019-02-09T14:17:11.489Z,73.51
2019-02-09T14:18:19.532Z,75.51
2019-02-09T14:19:27.586Z,77.13
2019-02-09T14:20:35.658Z,72.27
2019-02-09T14:21:43.731Z,72.27
2019-02-09T14:22:51.806Z,76.37
2019-02-09T14:23:59.827Z,70.27
2019-02-09T14:25:07.928Z,73.03
2019-02-09T14:26:15.947Z,75.79
2019-02-09T14:27:24.018Z,73.22
2019-02-09T14:28:32.053Z,74.65
2019-02-09T14:29:40.151Z,73.32
2019-02-09T14:30:48.198Z,74.18
2019-02-09T14:31:57.329Z,72.94
2019-02-09T14:33:04.325Z,73.32
2019-02-09T14:34:12.383Z,79.41
2019-02-09T14:35:20.457Z,77.61
2019-02-09T14:36:28.512Z,78.94